• Join FlightAware (Why Join?)
  • Login
  • US Flag 
10:45PM EDT


 

Airport Tracker/Info


-or-


 

Live Flight TrackerFlight Track Log ✈ SWA482 ✈ 06-May-2013 ✈ KPHX - KABQ

Flight Track Log - Related Links

Times and Time Zones

All times are in EDT time to prevent confusion due to time zone crossing. See the SWA482 flight status page for this flight to view local times or setup timezone preferences in your user account.

Time Position Orientation Groundspeed Altitude Reporting Facility
EDT Latitude Longitude Course Direction KTS MPH feet Rate Location/Type
09:12PM 33.4333 -112.0500 270° West 194 223 3,000  Level Phoenix TRACON
09:14PM 33.4333 -112.1333 270° West 217 250 6,800 3,420 Climbing Phoenix TRACON
09:14PM 33.4431 -112.1369 343° North 222 255 7,400 2,340 Climbing Albuquerque Center
09:15PM 33.5019 -112.1089 22° Northeast 262 302 9,900 2,820 Climbing Albuquerque Center
09:16PM 33.5281 -112.0081 73° East 320 368 13,300 2,700 Climbing Albuquerque Center
09:17PM 33.5517 -111.9022 75° East 329 379 15,400 1,920 Climbing Albuquerque Center
09:18PM 33.5883 -111.7389 75° East 421 484 17,300 2,160 Climbing Albuquerque Center
09:19PM 33.6200 -111.5900 76° East 454 522 19,900 2,460 Climbing Albuquerque Center
09:20PM 33.6531 -111.4369 75° East 474 545 22,400 2,220 Climbing Albuquerque Center
09:21PM 33.6867 -111.2772 76° East 491 565 24,500 1,860 Climbing Albuquerque Center
09:22PM 33.7417 -111.1206 67° East 511 588 26,300 2,040 Climbing Albuquerque Center
09:24PM 33.8295 -110.8671 62° Northeast  Level FlightAware Approximate
09:25PM 33.9200 -110.6147 62° Northeast 514 592 33,000  Level Albuquerque Center
09:26PM 33.9744 -110.4581 67° East 511 588 34,800 1,860 Climbing Albuquerque Center
09:27PM 34.0306 -110.2925 68° East 510 587 36,900 660 Climbing Albuquerque Center
09:29PM 34.1124 -110.0570 67° East  Level FlightAware Approximate
09:29PM 34.1406 -109.9781 67° East 496 571 37,000  Level Albuquerque Center
09:31PM 34.2145 -109.7479 69° East  Level FlightAware Approximate
09:31PM 34.2419 -109.6817 69° East 498 573 37,000  Level Albuquerque Center
09:32PM 34.3014 -109.5111 67° East 496 571 37,000  Level Albuquerque Center
09:33PM 34.3511 -109.3625 68° East 496 571 37,000  Level Albuquerque Center
09:35PM 34.4472 -109.0356 70° East 497 572 37,000  Level Albuquerque Center
09:36PM 34.4853 -108.8794 73° East 501 577 37,000 -360 Level Albuquerque Center
09:38PM 34.4918 -108.7159 87° East  Level FlightAware Approximate
09:38PM 34.5636 -108.5436 87° East 501 577 35,900  Level Albuquerque Center
09:39PM 34.5994 -108.3856 75° East 507 583 33,000 -2,700 Descending Albuquerque Center
09:40PM 34.6361 -108.2233 75° East 503 579 30,400 -2,760 Descending Albuquerque Center
09:41PM 34.6797 -108.0325 74° East 494 568 27,500 -2,640 Descending Albuquerque Center
09:42PM 34.7150 -107.8792 74° East 480 552 25,100 -2,280 Descending Albuquerque Center
09:43PM 34.7486 -107.7317 74° East 463 533 22,900 -2,220 Descending Albuquerque Center
09:44PM 34.7803 -107.5856 75° East 453 521 20,700 -2,220 Descending Albuquerque Center
09:45PM 34.8006 -107.4869 76° East 432 497 19,200 -2,220 Descending Albuquerque Center
09:45PM 34.8106 -107.4478 73° East 434 499 18,500 -1,380 Descending Albuquerque Center
09:46PM 34.8394 -107.3150 75° East 416 479 17,300 -1,320 Descending Albuquerque Center
09:47PM 34.8667 -107.2353 67° East 362 417 16,400 -1,380 Descending Albuquerque Center
09:47PM 34.8794 -107.2056 62° Northeast 369 425 15,900 -1,800 Descending Albuquerque Center
09:48PM 34.9036 -107.1150 72° East 353 406 14,600 -1,680 Descending Albuquerque Center
09:49PM 34.9064 -107.0900 82° East 362 417 14,200 -1,680 Descending Albuquerque Center
09:49PM 34.9186 -106.9894 82° East 350 403 12,800 -1,920 Descending Albuquerque Center
09:50PM 34.9225 -106.9517 83° East 354 407 12,300 -1,260 Descending Albuquerque Center
09:51PM 34.9464 -106.7675 81° East 320 368 10,300 -1,080 Descending Albuquerque Center
09:52PM 34.9475 -106.7378 87° East 323 372 10,100 -480 Descending Albuquerque Center
09:53PM 34.9533 -106.6486 85° East 288 331 9,700 -720 Descending Albuquerque Center
09:53PM 34.9542 -106.6050 89° East 239 275 9,100 -1,020 Descending Albuquerque Center
09:54PM 34.9567 -106.5667 85° East 262 302 8,700 -720 Descending Albuquerque Center
09:54PM 34.9744 -106.5375 53° Northeast 201 231 8,400 -720 Descending Albuquerque Center
09:55PM 34.9950 -106.5186 37° Northeast 224 258 8,000 -1,140 Descending Albuquerque Center
09:55PM 35.0208 -106.5100 15° North 164 189 7,300 -1,320 Descending Albuquerque Center
09:57PM 35.0439 -106.5733 294° West 161 185 5,400 -1,200 Descending Albuquerque Center